createdAt,value
2016-07-18T00:00:13.762Z,769
2016-07-18T00:00:43.776Z,776
2016-07-18T00:01:13.796Z,779
2016-07-18T00:01:43.811Z,779
2016-07-18T00:02:13.829Z,775
2016-07-18T00:02:43.835Z,775
2016-07-18T00:03:13.851Z,785
2016-07-18T00:03:43.864Z,785
2016-07-18T00:04:13.880Z,777
2016-07-18T00:04:43.899Z,788
2016-07-18T00:05:13.909Z,784
2016-07-18T00:05:43.924Z,784
2016-07-18T00:06:13.943Z,781
2016-07-18T00:06:43.960Z,781
2016-07-18T00:07:13.973Z,784
2016-07-18T00:07:43.981Z,800
2016-07-18T00:08:13.997Z,800
2016-07-18T00:08:44.010Z,800
2016-07-18T00:09:14.025Z,800
2016-07-18T00:09:44.043Z,800
2016-07-18T00:10:14.051Z,800
2016-07-18T00:10:44.066Z,800
2016-07-18T00:11:14.091Z,800
2016-07-18T00:11:44.094Z,800
2016-07-18T00:12:14.110Z,800
2016-07-18T00:12:44.123Z,800
2016-07-18T00:13:14.139Z,800
2016-07-18T00:13:44.155Z,790
2016-07-18T00:14:14.174Z,794
2016-07-18T00:14:44.186Z,794
2016-07-18T00:15:13.488Z,801
2016-07-18T00:15:44.208Z,808
2016-07-18T00:16:14.226Z,805
2016-07-18T00:16:44.242Z,808
2016-07-18T00:17:14.255Z,805
2016-07-18T00:17:44.273Z,805
2016-07-18T00:18:14.283Z,804
2016-07-18T00:18:44.301Z,807
2016-07-18T00:19:14.312Z,807
2016-07-18T00:19:44.333Z,807
2016-07-18T00:20:14.343Z,807
2016-07-18T00:20:44.358Z,817
2016-07-18T00:21:14.376Z,817
2016-07-18T00:21:44.387Z,817
2016-07-18T00:22:14.398Z,830
2016-07-18T00:22:44.417Z,822
2016-07-18T00:23:14.431Z,825
2016-07-18T00:23:44.443Z,818
2016-07-18T00:24:14.458Z,818
2016-07-18T00:24:44.470Z,807
2016-07-18T00:25:14.487Z,814
2016-07-18T00:25:44.508Z,810
2016-07-18T00:26:14.515Z,813
2016-07-18T00:26:44.548Z,813
2016-07-18T00:27:14.540Z,813
2016-07-18T00:27:44.557Z,810
2016-07-18T00:28:13.863Z,810
2016-07-18T00:28:44.586Z,810
2016-07-18T00:29:14.604Z,810
2016-07-18T00:29:44.616Z,810
2016-07-18T00:30:14.628Z,813
2016-07-18T00:30:44.650Z,813
2016-07-18T00:31:14.657Z,813
2016-07-18T00:31:44.672Z,813
2016-07-18T00:32:14.687Z,817
2016-07-18T00:32:44.701Z,810
2016-07-18T00:33:14.718Z,807
2016-07-18T00:33:44.731Z,814
2016-07-18T00:34:14.742Z,814
2016-07-18T00:34:44.759Z,814
2016-07-18T00:35:14.778Z,814
2016-07-18T00:35:44.795Z,814
2016-07-18T00:36:14.804Z,814
2016-07-18T00:36:44.815Z,814
2016-07-18T00:37:14.833Z,814
2016-07-18T00:37:44.847Z,821
2016-07-18T00:38:14.867Z,821
2016-07-18T00:38:44.873Z,818
2016-07-18T00:39:14.894Z,818
2016-07-18T00:39:44.910Z,810
2016-07-18T00:40:14.923Z,810
2016-07-18T00:40:44.933Z,810
2016-07-18T00:41:14.951Z,810
2016-07-18T00:41:44.963Z,817
2016-07-18T00:42:14.973Z,817
2016-07-18T00:42:44.991Z,817
2016-07-18T00:43:15.001Z,817
2016-07-18T00:43:45.015Z,817
2016-07-18T00:44:15.034Z,817
2016-07-18T00:44:45.049Z,826
2016-07-18T00:45:15.060Z,819
2016-07-18T00:45:45.077Z,812
2016-07-18T00:46:15.091Z,815
2016-07-18T00:46:45.106Z,815
2016-07-18T00:47:15.116Z,815
2016-07-18T00:47:45.139Z,822
2016-07-18T00:48:15.147Z,822
2016-07-18T00:48:45.162Z,829
2016-07-18T00:49:15.178Z,825
2016-07-18T00:49:45.199Z,825
2016-07-18T00:50:15.207Z,815
2016-07-18T00:50:44.513Z,821
2016-07-18T00:51:15.233Z,815
2016-07-18T00:51:45.247Z,815
2016-07-18T00:52:15.263Z,815
2016-07-18T00:52:45.283Z,810
2016-07-18T00:53:15.294Z,814
2016-07-18T00:53:45.315Z,814
2016-07-18T00:54:15.331Z,810
2016-07-18T00:54:45.335Z,817
2016-07-18T00:55:15.353Z,817
2016-07-18T00:55:45.364Z,809
2016-07-18T00:56:15.383Z,809
2016-07-18T00:56:45.392Z,808
2016-07-18T00:57:14.702Z,808
2016-07-18T00:57:45.420Z,808
2016-07-18T00:58:15.437Z,822
2016-07-18T00:58:45.450Z,822
2016-07-18T00:59:15.464Z,819
2016-07-18T00:59:45.478Z,808
2016-07-18T01:00:15.497Z,808
2016-07-18T01:00:45.512Z,818
2016-07-18T01:01:15.524Z,818
2016-07-18T01:01:45.538Z,818
2016-07-18T01:02:15.553Z,822
2016-07-18T01:02:45.566Z,822
2016-07-18T01:03:15.579Z,822
2016-07-18T01:03:44.887Z,838
2016-07-18T01:04:15.609Z,838
2016-07-18T01:04:45.622Z,845
2016-07-18T01:05:15.642Z,842
2016-07-18T01:05:45.652Z,849
2016-07-18T01:06:15.665Z,853
2016-07-18T01:06:45.684Z,860
2016-07-18T01:07:15.696Z,853
2016-07-18T01:07:45.716Z,853
2016-07-18T01:08:15.723Z,857
2016-07-18T01:08:45.739Z,857
2016-07-18T01:09:15.752Z,856
2016-07-18T01:09:45.770Z,864
2016-07-18T01:10:15.782Z,868
2016-07-18T01:10:45.798Z,868
2016-07-18T01:11:15.814Z,868
2016-07-18T01:11:45.824Z,851
2016-07-18T01:12:15.836Z,851
2016-07-18T01:12:45.852Z,859
2016-07-18T01:13:15.867Z,847
2016-07-18T01:13:45.891Z,855
2016-07-18T01:14:15.894Z,851
2016-07-18T01:14:45.918Z,851
2016-07-18T01:15:15.926Z,851
2016-07-18T01:15:45.943Z,851
2016-07-18T01:16:15.958Z,851
2016-07-18T01:16:45.970Z,851
2016-07-18T01:17:15.984Z,864
2016-07-18T01:17:46.002Z,848
2016-07-18T01:18:16.015Z,845
2016-07-18T01:18:46.025Z,845
2016-07-18T01:19:16.045Z,841
2016-07-18T01:19:46.056Z,830
2016-07-18T01:20:16.066Z,837
2016-07-18T01:20:46.080Z,837
2016-07-18T01:21:16.100Z,837
2016-07-18T01:21:45.402Z,837
2016-07-18T01:22:16.124Z,837
2016-07-18T01:22:46.138Z,837
2016-07-18T01:23:16.153Z,837
2016-07-18T01:23:46.171Z,837
2016-07-18T01:24:16.179Z,844
2016-07-18T01:24:46.196Z,848
2016-07-18T01:25:16.213Z,841
2016-07-18T01:25:45.514Z,848
2016-07-18T01:26:16.240Z,848
2016-07-18T01:26:46.267Z,848
2016-07-18T01:27:16.266Z,848
2016-07-18T01:27:46.286Z,848
2016-07-18T01:28:16.296Z,848
2016-07-18T01:28:46.315Z,845
2016-07-18T01:29:16.325Z,845
2016-07-18T01:29:46.340Z,849
2016-07-18T01:30:16.356Z,849
2016-07-18T01:30:46.376Z,849
2016-07-18T01:31:16.385Z,845
2016-07-18T01:31:46.402Z,845
2016-07-18T01:32:16.408Z,845
2016-07-18T01:32:46.428Z,845
2016-07-18T01:33:16.441Z,853
2016-07-18T01:33:46.461Z,865
2016-07-18T01:34:16.471Z,868
2016-07-18T01:34:46.487Z,872
2016-07-18T01:35:16.500Z,879
2016-07-18T01:35:46.518Z,879
2016-07-18T01:36:16.526Z,875
2016-07-18T01:36:46.541Z,875
2016-07-18T01:37:16.559Z,875
2016-07-18T01:37:46.573Z,863
2016-07-18T01:38:16.586Z,863
2016-07-18T01:38:46.597Z,867
2016-07-18T01:39:16.615Z,867
2016-07-18T01:39:46.623Z,867
2016-07-18T01:40:16.642Z,867
2016-07-18T01:40:46.656Z,867
2016-07-18T01:41:16.677Z,867
2016-07-18T01:41:46.684Z,867
2016-07-18T01:42:15.989Z,867
2016-07-18T01:42:46.714Z,855
2016-07-18T01:43:16.726Z,855
2016-07-18T01:43:46.740Z,859
2016-07-18T01:44:16.758Z,863
2016-07-18T01:44:46.766Z,852
2016-07-18T01:45:16.785Z,864
2016-07-18T01:45:46.800Z,864
2016-07-18T01:46:16.813Z,855
2016-07-18T01:46:46.825Z,855
2016-07-18T01:47:16.846Z,855
2016-07-18T01:47:46.864Z,859
2016-07-18T01:48:16.870Z,859
2016-07-18T01:48:46.886Z,859
2016-07-18T01:49:16.896Z,863
2016-07-18T01:49:46.914Z,866
2016-07-18T01:50:16.925Z,863
2016-07-18T01:50:46.940Z,866
2016-07-18T01:51:16.955Z,874
2016-07-18T01:51:46.973Z,874
2016-07-18T01:52:16.996Z,878
2016-07-18T01:52:47.008Z,878
2016-07-18T01:53:17.012Z,878
2016-07-18T01:53:47.024Z,866
2016-07-18T01:54:17.041Z,866
2016-07-18T01:54:46.348Z,866
2016-07-18T01:55:17.072Z,866
2016-07-18T01:55:47.089Z,866
2016-07-18T01:56:17.106Z,866
2016-07-18T01:56:46.410Z,866
2016-07-18T01:57:17.128Z,866
2016-07-18T01:57:47.146Z,866
2016-07-18T01:58:17.158Z,886
2016-07-18T01:58:47.170Z,886
2016-07-18T01:59:17.187Z,890
2016-07-18T01:59:47.198Z,890
2016-07-18T02:00:17.218Z,890
2016-07-18T02:00:47.226Z,895
2016-07-18T02:01:17.244Z,895
2016-07-18T02:01:47.258Z,891
2016-07-18T02:02:17.272Z,891
2016-07-18T02:02:47.282Z,891
2016-07-18T02:03:17.303Z,891
2016-07-18T02:03:47.313Z,887
2016-07-18T02:04:17.329Z,887
2016-07-18T02:04:47.341Z,887
2016-07-18T02:05:17.363Z,887
2016-07-18T02:05:47.373Z,887
2016-07-18T02:06:17.393Z,887
2016-07-18T02:06:47.399Z,887
2016-07-18T02:07:17.414Z,887
2016-07-18T02:07:47.429Z,887
2016-07-18T02:08:17.440Z,887
2016-07-18T02:08:47.454Z,642
2016-07-18T02:09:17.472Z,642
2016-07-18T02:09:47.488Z,642
2016-07-18T02:10:17.498Z,642
2016-07-18T02:10:47.515Z,890
2016-07-18T02:11:17.529Z,886
2016-07-18T02:11:47.544Z,894
2016-07-18T02:12:17.556Z,894
2016-07-18T02:12:47.570Z,890
2016-07-18T02:13:17.582Z,890
2016-07-18T02:13:47.598Z,883
2016-07-18T02:14:17.613Z,883
2016-07-18T02:14:47.628Z,883
2016-07-18T02:15:16.929Z,883
2016-07-18T02:15:47.659Z,886
2016-07-18T02:16:17.669Z,886
2016-07-18T02:16:47.691Z,882
2016-07-18T02:17:17.699Z,875
2016-07-18T02:17:47.716Z,875
2016-07-18T02:18:17.728Z,875
2016-07-18T02:18:47.738Z,875
2016-07-18T02:19:17.759Z,871
2016-07-18T02:19:47.772Z,871
2016-07-18T02:20:17.788Z,871
2016-07-18T02:20:47.796Z,871
2016-07-18T02:21:17.814Z,867
2016-07-18T02:21:47.118Z,867
2016-07-18T02:22:17.840Z,867
2016-07-18T02:22:47.852Z,867
2016-07-18T02:23:17.866Z,867
2016-07-18T02:23:47.887Z,864
2016-07-18T02:24:17.897Z,868
2016-07-18T02:24:47.914Z,868
2016-07-18T02:25:17.928Z,868
2016-07-18T02:25:47.939Z,868
2016-07-18T02:26:17.961Z,872
2016-07-18T02:26:47.970Z,872
2016-07-18T02:27:17.987Z,872
2016-07-18T02:27:47.998Z,872
2016-07-18T02:28:18.011Z,867
2016-07-18T02:28:48.027Z,867
2016-07-18T02:29:18.037Z,867
2016-07-18T02:29:48.056Z,878
2016-07-18T02:30:18.071Z,874
2016-07-18T02:30:48.088Z,865
2016-07-18T02:31:18.098Z,869
2016-07-18T02:31:48.115Z,869
2016-07-18T02:32:18.132Z,869
2016-07-18T02:32:48.141Z,869
2016-07-18T02:33:17.446Z,869
2016-07-18T02:33:48.168Z,872
2016-07-18T02:34:17.478Z,872
2016-07-18T02:34:48.202Z,872
2016-07-18T02:35:18.214Z,872
2016-07-18T02:35:48.235Z,876
2016-07-18T02:36:17.530Z,876
2016-07-18T02:36:48.270Z,884
2016-07-18T02:37:18.269Z,884
2016-07-18T02:37:48.286Z,884
2016-07-18T02:38:18.305Z,881
2016-07-18T02:38:48.311Z,881
2016-07-18T02:39:18.323Z,881
2016-07-18T02:39:48.342Z,881
2016-07-18T02:40:18.354Z,881
2016-07-18T02:40:47.660Z,881
2016-07-18T02:41:18.386Z,877
2016-07-18T02:41:48.397Z,885
2016-07-18T02:42:18.410Z,881
2016-07-18T02:42:48.424Z,877
2016-07-18T02:43:18.439Z,877
2016-07-18T02:43:48.457Z,877
2016-07-18T02:44:18.470Z,877
2016-07-18T02:44:48.482Z,877
2016-07-18T02:45:18.498Z,873
2016-07-18T02:45:48.511Z,873
2016-07-18T02:46:18.523Z,873
2016-07-18T02:46:48.545Z,866
2016-07-18T02:47:18.560Z,877
2016-07-18T02:47:48.573Z,877
2016-07-18T02:48:18.582Z,877
2016-07-18T02:48:48.601Z,877
2016-07-18T02:49:18.612Z,885
2016-07-18T02:49:48.624Z,870
2016-07-18T02:50:18.638Z,874
2016-07-18T02:50:48.656Z,874
2016-07-18T02:51:18.669Z,874
2016-07-18T02:51:48.683Z,874
2016-07-18T02:52:18.698Z,881
2016-07-18T02:52:48.710Z,885
2016-07-18T02:53:18.726Z,885
2016-07-18T02:53:48.741Z,893
2016-07-18T02:54:18.757Z,889
2016-07-18T02:54:48.772Z,642
2016-07-18T02:55:18.782Z,642
2016-07-18T02:55:48.799Z,894
2016-07-18T02:56:18.824Z,894
2016-07-18T02:56:48.827Z,894
2016-07-18T02:57:18.842Z,894
2016-07-18T02:57:48.863Z,890
2016-07-18T02:58:18.870Z,886
2016-07-18T02:58:48.895Z,886
2016-07-18T02:59:18.901Z,890
2016-07-18T02:59:48.914Z,890
2016-07-18T03:00:18.926Z,890
2016-07-18T03:00:48.949Z,894
2016-07-18T03:01:18.957Z,882
2016-07-18T03:01:48.969Z,882
2016-07-18T03:02:18.986Z,891
2016-07-18T03:02:48.997Z,887
2016-07-18T03:03:19.017Z,887
2016-07-18T03:03:49.026Z,887
2016-07-18T03:04:19.044Z,887
2016-07-18T03:04:49.056Z,887
2016-07-18T03:05:19.071Z,891
2016-07-18T03:05:49.080Z,891
2016-07-18T03:06:19.101Z,891
2016-07-18T03:06:49.113Z,891
2016-07-18T03:07:19.127Z,891
2016-07-18T03:07:49.142Z,891
2016-07-18T03:08:19.153Z,875
2016-07-18T03:08:49.170Z,883
2016-07-18T03:09:19.190Z,883
2016-07-18T03:09:49.201Z,883
2016-07-18T03:10:19.211Z,887
2016-07-18T03:10:49.233Z,895
2016-07-18T03:11:19.238Z,890
2016-07-18T03:11:49.255Z,890
2016-07-18T03:12:19.267Z,651
2016-07-18T03:12:49.287Z,651
2016-07-18T03:13:19.301Z,660
2016-07-18T03:13:49.312Z,655
2016-07-18T03:14:19.327Z,655
2016-07-18T03:14:49.356Z,655
2016-07-18T03:15:19.352Z,655
2016-07-18T03:15:48.665Z,655
2016-07-18T03:16:19.383Z,655
2016-07-18T03:16:49.403Z,655
2016-07-18T03:17:19.412Z,655
2016-07-18T03:17:48.719Z,643
2016-07-18T03:18:18.733Z,643
2016-07-18T03:18:49.460Z,647
2016-07-18T03:19:19.468Z,643
2016-07-18T03:19:49.485Z,643
2016-07-18T03:20:19.502Z,643
2016-07-18T03:20:48.802Z,894
2016-07-18T03:21:19.533Z,894
2016-07-18T03:21:49.541Z,894
2016-07-18T03:22:19.552Z,894
2016-07-18T03:22:49.567Z,640
2016-07-18T03:23:19.591Z,640
2016-07-18T03:23:49.600Z,640
2016-07-18T03:24:19.612Z,644
2016-07-18T03:24:49.625Z,644
2016-07-18T03:25:19.640Z,640
2016-07-18T03:25:49.652Z,640
2016-07-18T03:26:19.674Z,640
2016-07-18T03:26:49.687Z,640
2016-07-18T03:27:19.703Z,640
2016-07-18T03:27:49.714Z,640
2016-07-18T03:28:19.732Z,888
2016-07-18T03:28:49.752Z,892
2016-07-18T03:29:19.761Z,640
2016-07-18T03:29:49.773Z,640
2016-07-18T03:30:19.789Z,640
2016-07-18T03:30:49.802Z,640
2016-07-18T03:31:19.821Z,640
2016-07-18T03:31:49.827Z,892
2016-07-18T03:32:19.842Z,892
2016-07-18T03:32:49.859Z,892
2016-07-18T03:33:19.872Z,892
2016-07-18T03:33:49.884Z,885
2016-07-18T03:34:19.902Z,885
2016-07-18T03:34:49.914Z,885
2016-07-18T03:35:19.929Z,886
2016-07-18T03:35:49.957Z,890
2016-07-18T03:36:19.953Z,890
2016-07-18T03:36:49.973Z,890
2016-07-18T03:37:19.983Z,890
2016-07-18T03:37:50.005Z,886
2016-07-18T03:38:20.015Z,891
2016-07-18T03:38:50.047Z,887
2016-07-18T03:39:20.045Z,887
2016-07-18T03:39:50.058Z,891
2016-07-18T03:40:20.075Z,891
2016-07-18T03:40:50.092Z,891
2016-07-18T03:41:20.104Z,891
2016-07-18T03:41:50.114Z,891
2016-07-18T03:42:20.128Z,891
2016-07-18T03:42:50.140Z,891
2016-07-18T03:43:20.160Z,891
2016-07-18T03:43:50.173Z,647
2016-07-18T03:44:20.186Z,643
2016-07-18T03:44:50.198Z,643
2016-07-18T03:45:20.214Z,643
2016-07-18T03:45:50.233Z,643
2016-07-18T03:46:20.245Z,643
2016-07-18T03:46:50.260Z,651
2016-07-18T03:47:20.274Z,651
2016-07-18T03:47:49.575Z,643
2016-07-18T03:48:20.300Z,643
2016-07-18T03:48:50.317Z,643
2016-07-18T03:49:20.329Z,643
2016-07-18T03:49:50.345Z,660
2016-07-18T03:50:20.356Z,660
2016-07-18T03:50:50.375Z,660
2016-07-18T03:51:20.392Z,653
2016-07-18T03:51:50.405Z,649
2016-07-18T03:52:20.414Z,649
2016-07-18T03:52:50.428Z,649
2016-07-18T03:53:20.443Z,649
2016-07-18T03:53:50.458Z,649
2016-07-18T03:54:20.472Z,649
2016-07-18T03:54:50.486Z,649
2016-07-18T03:55:20.498Z,653
2016-07-18T03:55:50.521Z,653
2016-07-18T03:56:20.530Z,653
2016-07-18T03:56:50.547Z,653
2016-07-18T03:57:20.560Z,653
2016-07-18T03:57:50.581Z,649
2016-07-18T03:58:20.584Z,649
2016-07-18T03:58:50.607Z,649
2016-07-18T03:59:20.616Z,649
2016-07-18T03:59:50.635Z,645
2016-07-18T04:00:19.931Z,893
2016-07-18T04:00:50.661Z,645
2016-07-18T04:01:20.675Z,645
2016-07-18T04:01:50.686Z,893
2016-07-18T04:02:20.702Z,893
2016-07-18T04:02:50.714Z,641
2016-07-18T04:03:20.735Z,641
2016-07-18T04:03:50.745Z,641
2016-07-18T04:04:20.755Z,641
2016-07-18T04:04:50.771Z,885
2016-07-18T04:05:20.784Z,889
2016-07-18T04:05:50.801Z,889
2016-07-18T04:06:20.815Z,889
2016-07-18T04:06:50.829Z,889
2016-07-18T04:07:20.846Z,889
2016-07-18T04:07:50.860Z,893
2016-07-18T04:08:20.875Z,889
2016-07-18T04:08:50.884Z,889
2016-07-18T04:09:20.905Z,889
2016-07-18T04:09:50.915Z,889
2016-07-18T04:10:20.942Z,877
2016-07-18T04:10:50.946Z,881
2016-07-18T04:11:20.966Z,881
2016-07-18T04:11:50.977Z,881
2016-07-18T04:12:20.985Z,881
2016-07-18T04:12:51.000Z,881
2016-07-18T04:13:21.013Z,873
2016-07-18T04:13:51.041Z,873
2016-07-18T04:14:21.043Z,873
2016-07-18T04:14:51.055Z,873
2016-07-18T04:15:21.074Z,877
2016-07-18T04:15:51.089Z,877
2016-07-18T04:16:21.101Z,873
2016-07-18T04:16:51.117Z,877
2016-07-18T04:17:21.131Z,877
2016-07-18T04:17:51.151Z,873
2016-07-18T04:18:20.449Z,869
2016-07-18T04:18:51.176Z,869
2016-07-18T04:19:21.187Z,869
2016-07-18T04:19:51.198Z,879
2016-07-18T04:20:21.216Z,879
2016-07-18T04:20:51.234Z,876
2016-07-18T04:21:21.245Z,867
2016-07-18T04:21:50.551Z,875
2016-07-18T04:22:21.277Z,863
2016-07-18T04:22:51.294Z,863
2016-07-18T04:23:21.303Z,863
2016-07-18T04:23:51.316Z,867
2016-07-18T04:24:21.331Z,867
2016-07-18T04:24:51.345Z,863
2016-07-18T04:25:21.357Z,863
2016-07-18T04:25:51.374Z,863
2016-07-18T04:26:21.390Z,863
2016-07-18T04:26:51.400Z,863
2016-07-18T04:27:21.422Z,863
2016-07-18T04:27:51.430Z,860
2016-07-18T04:28:21.445Z,860
2016-07-18T04:28:51.459Z,856
2016-07-18T04:29:21.477Z,852
2016-07-18T04:29:51.486Z,844
2016-07-18T04:30:21.499Z,855
2016-07-18T04:30:51.519Z,848
2016-07-18T04:31:20.827Z,848
2016-07-18T04:31:51.547Z,848
2016-07-18T04:32:21.561Z,844
2016-07-18T04:32:51.578Z,840
2016-07-18T04:33:21.596Z,840
2016-07-18T04:33:51.606Z,833
2016-07-18T04:34:21.621Z,838
2016-07-18T04:34:50.937Z,838
2016-07-18T04:35:21.648Z,838
2016-07-18T04:35:51.667Z,838
2016-07-18T04:36:21.676Z,838
2016-07-18T04:36:51.692Z,842
2016-07-18T04:37:21.702Z,842
2016-07-18T04:37:51.727Z,838
2016-07-18T04:38:21.738Z,838
2016-07-18T04:38:51.037Z,838
2016-07-18T04:39:21.760Z,838
2016-07-18T04:39:51.071Z,841
2016-07-18T04:40:21.794Z,841
2016-07-18T04:40:51.807Z,845
2016-07-18T04:41:21.111Z,845
2016-07-18T04:41:51.843Z,837
2016-07-18T04:42:21.850Z,833
2016-07-18T04:42:51.869Z,829
2016-07-18T04:43:21.882Z,829
2016-07-18T04:43:51.902Z,829
2016-07-18T04:44:21.908Z,829
2016-07-18T04:44:51.925Z,833
2016-07-18T04:45:21.940Z,833
2016-07-18T04:45:51.954Z,833
2016-07-18T04:46:21.968Z,833
2016-07-18T04:46:51.980Z,825
2016-07-18T04:47:21.996Z,822
2016-07-18T04:47:52.017Z,822
2016-07-18T04:48:22.027Z,815
2016-07-18T04:48:52.037Z,815
2016-07-18T04:49:22.055Z,808
2016-07-18T04:49:51.358Z,812
2016-07-18T04:50:22.080Z,795
2016-07-18T04:50:52.097Z,795
2016-07-18T04:51:22.111Z,795
2016-07-18T04:51:52.126Z,795
2016-07-18T04:52:22.142Z,792
2016-07-18T04:52:52.155Z,785
2016-07-18T04:53:22.176Z,797
2016-07-18T04:53:52.183Z,790
2016-07-18T04:54:22.199Z,773
2016-07-18T04:54:52.214Z,510
2016-07-18T04:55:21.518Z,776
2016-07-18T04:55:52.243Z,769
2016-07-18T04:56:22.261Z,500
2016-07-18T04:56:52.271Z,500
2016-07-18T04:57:22.285Z,500
2016-07-18T04:57:52.302Z,503
2016-07-18T04:58:22.322Z,491
2016-07-18T04:58:52.331Z,494
2016-07-18T04:59:22.347Z,491
2016-07-18T04:59:52.373Z,488
2016-07-18T05:00:22.378Z,485
2016-07-18T05:00:52.392Z,485
2016-07-18T05:01:22.409Z,485
2016-07-18T05:01:52.435Z,485
2016-07-18T05:02:22.431Z,485
2016-07-18T05:02:52.450Z,475
2016-07-18T05:03:22.474Z,475
2016-07-18T05:03:52.480Z,466
2016-07-18T05:04:22.496Z,468
2016-07-18T05:04:51.802Z,468
2016-07-18T05:05:21.819Z,468
2016-07-18T05:05:52.543Z,468
2016-07-18T05:06:22.562Z,469
2016-07-18T05:06:52.571Z,469
2016-07-18T05:07:22.587Z,469
2016-07-18T05:07:52.602Z,469
2016-07-18T05:08:21.911Z,466
2016-07-18T05:08:52.635Z,459
2016-07-18T05:09:22.649Z,469
2016-07-18T05:09:51.950Z,465
2016-07-18T05:10:22.683Z,465
2016-07-18T05:10:52.688Z,459
2016-07-18T05:11:22.706Z,452
2016-07-18T05:11:52.722Z,456
2016-07-18T05:12:22.733Z,456
2016-07-18T05:12:52.750Z,453
2016-07-18T05:13:22.774Z,449
2016-07-18T05:13:52.776Z,430
2016-07-18T05:14:22.797Z,433
2016-07-18T05:14:52.812Z,430
2016-07-18T05:15:22.825Z,447
2016-07-18T05:15:52.842Z,444
2016-07-18T05:16:22.860Z,430
2016-07-18T05:16:52.871Z,436
2016-07-18T05:17:22.885Z,433
2016-07-18T05:17:52.900Z,439
2016-07-18T05:18:22.920Z,427
2016-07-18T05:18:52.930Z,441
2016-07-18T05:19:22.949Z,438
2016-07-18T05:19:52.971Z,440
2016-07-18T05:20:22.978Z,434
2016-07-18T05:20:52.992Z,434
2016-07-18T05:21:23.006Z,430
2016-07-18T05:21:53.020Z,433
2016-07-18T05:22:23.044Z,447
2016-07-18T05:22:53.048Z,443
2016-07-18T05:23:23.078Z,440
2016-07-18T05:23:53.090Z,434
2016-07-18T05:24:23.098Z,434
2016-07-18T05:24:53.111Z,431
2016-07-18T05:25:23.130Z,435
2016-07-18T05:25:53.144Z,435
2016-07-18T05:26:23.159Z,440
2016-07-18T05:26:53.168Z,440
2016-07-18T05:27:23.188Z,427
2016-07-18T05:27:53.202Z,430
2016-07-18T05:28:23.217Z,428
2016-07-18T05:28:53.232Z,434
2016-07-18T05:29:23.248Z,424
2016-07-18T05:29:53.263Z,424
2016-07-18T05:30:23.278Z,408
2016-07-18T05:30:53.293Z,418
2016-07-18T05:31:23.308Z,421
2016-07-18T05:31:53.323Z,425
2016-07-18T05:32:23.336Z,405
2016-07-18T05:32:53.353Z,415
2016-07-18T05:33:23.368Z,411
2016-07-18T05:33:53.381Z,421
2016-07-18T05:34:23.405Z,427
2016-07-18T05:34:53.415Z,412
2016-07-18T05:35:23.431Z,416
2016-07-18T05:35:52.735Z,417
2016-07-18T05:36:23.462Z,414
2016-07-18T05:36:53.476Z,433
2016-07-18T05:37:23.493Z,410
2016-07-18T05:37:53.505Z,413
2016-07-18T05:38:23.522Z,407
2016-07-18T05:38:53.536Z,421
2016-07-18T05:39:23.552Z,411
2016-07-18T05:39:53.569Z,413
2016-07-18T05:40:23.581Z,417
2016-07-18T05:40:53.598Z,420
2016-07-18T05:41:23.612Z,413
2016-07-18T05:41:53.632Z,425
2016-07-18T05:42:23.643Z,419
2016-07-18T05:42:53.659Z,430
2016-07-18T05:43:23.669Z,427
2016-07-18T05:43:53.688Z,421
2016-07-18T05:44:23.702Z,430
2016-07-18T05:44:53.718Z,418
2016-07-18T05:45:23.735Z,427
2016-07-18T05:45:53.748Z,415
2016-07-18T05:46:23.761Z,420
2016-07-18T05:46:53.781Z,423
2016-07-18T05:47:23.800Z,418
2016-07-18T05:47:53.808Z,411
2016-07-18T05:48:23.825Z,418
2016-07-18T05:48:53.838Z,433
2016-07-18T05:49:23.151Z,420
2016-07-18T05:49:53.167Z,413
2016-07-18T05:50:23.887Z,413
2016-07-18T05:50:53.902Z,422
2016-07-18T05:51:23.919Z,413
2016-07-18T05:51:53.934Z,410
2016-07-18T05:52:23.238Z,427
2016-07-18T05:52:53.965Z,421
2016-07-18T05:53:23.978Z,411
2016-07-18T05:53:53.994Z,411
2016-07-18T05:54:24.012Z,420
2016-07-18T05:54:54.025Z,417
2016-07-18T05:55:24.038Z,416
2016-07-18T05:55:54.071Z,427
2016-07-18T05:56:24.070Z,433
2016-07-18T05:56:53.383Z,427
2016-07-18T05:57:24.098Z,419
2016-07-18T05:57:54.122Z,422
2016-07-18T05:58:24.133Z,425
2016-07-18T05:58:53.439Z,432
2016-07-18T05:59:23.453Z,428
2016-07-18T05:59:54.179Z,428
2016-07-18T06:00:24.194Z,434
2016-07-18T06:00:54.214Z,434
2016-07-18T06:01:24.224Z,434
2016-07-18T06:01:54.239Z,423
2016-07-18T06:02:24.254Z,419
2016-07-18T06:02:54.270Z,419
2016-07-18T06:03:24.287Z,423
2016-07-18T06:03:54.305Z,416
2016-07-18T06:04:24.313Z,423
2016-07-18T06:04:54.334Z,426
2016-07-18T06:05:24.345Z,418
2016-07-18T06:05:54.368Z,425
2016-07-18T06:06:24.376Z,425
2016-07-18T06:06:53.683Z,421
2016-07-18T06:07:24.409Z,415
2016-07-18T06:07:54.430Z,425
2016-07-18T06:08:24.435Z,419
2016-07-18T06:08:54.458Z,422
2016-07-18T06:09:24.470Z,435
2016-07-18T06:09:54.483Z,409
2016-07-18T06:10:24.499Z,409
2016-07-18T06:10:54.516Z,419
2016-07-18T06:11:24.534Z,419
2016-07-18T06:11:54.549Z,410
2016-07-18T06:12:24.560Z,407
2016-07-18T06:12:54.579Z,413
2016-07-18T06:13:23.894Z,413
2016-07-18T06:13:54.618Z,417
2016-07-18T06:14:23.913Z,420
2016-07-18T06:14:54.639Z,400
2016-07-18T06:15:24.649Z,411
2016-07-18T06:15:54.670Z,411
2016-07-18T06:16:24.683Z,400
2016-07-18T06:16:54.701Z,394
2016-07-18T06:17:24.718Z,400
2016-07-18T06:17:54.734Z,393
2016-07-18T06:18:24.747Z,393
2016-07-18T06:18:54.053Z,385
2016-07-18T06:19:24.075Z,385
2016-07-18T06:19:54.790Z,638
2016-07-18T06:20:24.105Z,608
2016-07-18T06:20:54.825Z,609
2016-07-18T06:21:24.843Z,618
2016-07-18T06:21:54.855Z,609
2016-07-18T06:22:24.162Z,609
2016-07-18T06:22:54.884Z,612
2016-07-18T06:23:24.911Z,607
2016-07-18T06:23:54.919Z,617
2016-07-18T06:24:24.929Z,618
2016-07-18T06:24:54.952Z,592
2016-07-18T06:25:24.966Z,609
2016-07-18T06:25:54.979Z,613
2016-07-18T06:26:24.993Z,602
2016-07-18T06:26:55.008Z,621
2016-07-18T06:27:25.032Z,611
2016-07-18T06:27:55.041Z,604
2016-07-18T06:28:25.056Z,614
2016-07-18T06:28:55.080Z,605
2016-07-18T06:29:25.092Z,591
2016-07-18T06:29:55.110Z,602
2016-07-18T06:30:24.412Z,602
2016-07-18T06:30:55.137Z,580
2016-07-18T06:31:25.161Z,589
2016-07-18T06:31:55.172Z,581
2016-07-18T06:32:25.188Z,586
2016-07-18T06:32:54.497Z,606
2016-07-18T06:33:25.216Z,587
2016-07-18T06:33:55.232Z,594
2016-07-18T06:34:25.261Z,596
2016-07-18T06:34:54.556Z,594
2016-07-18T06:35:25.290Z,594
2016-07-18T06:35:55.295Z,594
2016-07-18T06:36:25.310Z,597
2016-07-18T06:36:55.331Z,606
2016-07-18T06:37:25.340Z,600
2016-07-18T06:37:55.355Z,602
2016-07-18T06:38:25.373Z,605
2016-07-18T06:38:55.388Z,593
2016-07-18T06:39:25.399Z,594
2016-07-18T06:39:55.423Z,578
2016-07-18T06:40:25.438Z,574
2016-07-18T06:40:55.453Z,582
2016-07-18T06:41:25.463Z,582
2016-07-18T06:41:55.480Z,579
2016-07-18T06:42:25.498Z,572
2016-07-18T06:42:55.512Z,575
2016-07-18T06:43:25.531Z,576
2016-07-18T06:43:55.544Z,576
2016-07-18T06:44:25.572Z,580
2016-07-18T06:44:55.575Z,578
2016-07-18T06:45:24.890Z,566
2016-07-18T06:45:55.609Z,564
2016-07-18T06:46:25.629Z,555
2016-07-18T06:46:55.636Z,543
2016-07-18T06:47:24.943Z,550
2016-07-18T06:47:54.960Z,543
2016-07-18T06:48:25.688Z,558
2016-07-18T06:48:54.991Z,537
2016-07-18T06:49:25.715Z,535
2016-07-18T06:49:55.733Z,541
2016-07-18T06:50:25.752Z,538
2016-07-18T06:50:55.765Z,521
2016-07-18T06:51:25.784Z,252
2016-07-18T06:51:55.802Z,232
2016-07-18T06:52:25.823Z,232
2016-07-18T06:52:55.847Z,202
2016-07-18T06:53:25.852Z,205